sensor_id;sensor_type;location;lat;lon;timestamp;P1;durP1;ratioP1;P2;durP2;ratioP2
62633;SDS011;48704;50.534;6.442;2022-07-21T00:02:16;8.25;;;5.50;;
62633;SDS011;48704;50.534;6.442;2022-07-21T00:04:42;7.88;;;5.65;;
62633;SDS011;48704;50.534;6.442;2022-07-21T00:07:07;8.60;;;5.75;;
62633;SDS011;48704;50.534;6.442;2022-07-21T00:09:33;8.18;;;5.90;;
62633;SDS011;48704;50.534;6.442;2022-07-21T00:12:01;8.95;;;6.15;;
62633;SDS011;48704;50.534;6.442;2022-07-21T00:14:28;8.38;;;6.10;;
62633;SDS011;48704;50.534;6.442;2022-07-21T00:16:53;9.55;;;6.03;;
62633;SDS011;48704;50.534;6.442;2022-07-21T00:19:19;9.90;;;6.05;;
62633;SDS011;48704;50.534;6.442;2022-07-21T00:21:44;8.38;;;6.50;;
62633;SDS011;48704;50.534;6.442;2022-07-21T00:24:10;8.10;;;5.53;;
62633;SDS011;48704;50.534;6.442;2022-07-21T00:26:36;8.30;;;5.55;;
62633;SDS011;48704;50.534;6.442;2022-07-21T00:29:01;8.35;;;6.15;;
62633;SDS011;48704;50.534;6.442;2022-07-21T00:31:27;9.85;;;5.93;;
62633;SDS011;48704;50.534;6.442;2022-07-21T00:33:53;7.80;;;5.60;;
62633;SDS011;48704;50.534;6.442;2022-07-21T00:36:19;9.10;;;5.88;;
62633;SDS011;48704;50.534;6.442;2022-07-21T00:38:46;9.07;;;6.30;;
62633;SDS011;48704;50.534;6.442;2022-07-21T00:41:12;10.57;;;6.45;;
62633;SDS011;48704;50.534;6.442;2022-07-21T00:43:38;9.15;;;5.50;;
62633;SDS011;48704;50.534;6.442;2022-07-21T00:46:03;9.65;;;6.20;;
62633;SDS011;48704;50.534;6.442;2022-07-21T00:48:29;9.68;;;6.40;;
62633;SDS011;48704;50.534;6.442;2022-07-21T00:50:55;10.07;;;6.88;;
62633;SDS011;48704;50.534;6.442;2022-07-21T00:53:20;11.30;;;6.60;;
62633;SDS011;48704;50.534;6.442;2022-07-21T00:55:46;9.95;;;7.03;;
62633;SDS011;48704;50.534;6.442;2022-07-21T00:58:12;10.15;;;6.20;;
62633;SDS011;48704;50.534;6.442;2022-07-21T01:00:39;13.20;;;6.72;;
62633;SDS011;48704;50.534;6.442;2022-07-21T01:03:05;9.27;;;6.43;;
62633;SDS011;48704;50.534;6.442;2022-07-21T01:05:30;11.50;;;7.07;;
62633;SDS011;48704;50.534;6.442;2022-07-21T01:07:56;9.48;;;6.35;;
62633;SDS011;48704;50.534;6.442;2022-07-21T01:10:27;12.15;;;7.20;;
62633;SDS011;48704;50.534;6.442;2022-07-21T01:12:54;11.07;;;7.22;;
62633;SDS011;48704;50.534;6.442;2022-07-21T01:15:20;9.35;;;6.70;;
62633;SDS011;48704;50.534;6.442;2022-07-21T01:17:47;8.82;;;6.13;;
62633;SDS011;48704;50.534;6.442;2022-07-21T01:20:14;12.40;;;7.68;;
62633;SDS011;48704;50.534;6.442;2022-07-21T01:22:42;10.00;;;7.07;;
62633;SDS011;48704;50.534;6.442;2022-07-21T01:25:09;11.95;;;7.95;;
62633;SDS011;48704;50.534;6.442;2022-07-21T01:27:35;9.95;;;6.80;;
62633;SDS011;48704;50.534;6.442;2022-07-21T01:30:01;11.10;;;7.22;;
62633;SDS011;48704;50.534;6.442;2022-07-21T01:32:28;9.32;;;7.22;;
62633;SDS011;48704;50.534;6.442;2022-07-21T01:34:54;11.50;;;8.05;;
62633;SDS011;48704;50.534;6.442;2022-07-21T01:37:21;13.95;;;8.32;;
62633;SDS011;48704;50.534;6.442;2022-07-21T01:39:48;11.95;;;7.97;;
62633;SDS011;48704;50.534;6.442;2022-07-21T01:42:33;10.98;;;7.65;;
62633;SDS011;48704;50.534;6.442;2022-07-21T01:44:58;12.77;;;8.20;;
62633;SDS011;48704;50.534;6.442;2022-07-21T01:47:24;12.20;;;8.15;;
62633;SDS011;48704;50.534;6.442;2022-07-21T01:49:50;10.63;;;7.80;;
62633;SDS011;48704;50.534;6.442;2022-07-21T01:52:15;12.68;;;8.10;;
62633;SDS011;48704;50.534;6.442;2022-07-21T01:54:41;10.57;;;7.70;;
62633;SDS011;48704;50.534;6.442;2022-07-21T01:57:07;13.00;;;7.80;;
62633;SDS011;48704;50.534;6.442;2022-07-21T01:59:32;10.43;;;7.20;;
62633;SDS011;48704;50.534;6.442;2022-07-21T02:01:58;10.57;;;7.22;;
62633;SDS011;48704;50.534;6.442;2022-07-21T02:04:24;11.30;;;7.13;;
62633;SDS011;48704;50.534;6.442;2022-07-21T02:06:50;11.27;;;7.28;;
62633;SDS011;48704;50.534;6.442;2022-07-21T02:09:16;11.40;;;7.32;;
62633;SDS011;48704;50.534;6.442;2022-07-21T02:11:42;9.82;;;6.68;;
62633;SDS011;48704;50.534;6.442;2022-07-21T02:14:07;12.50;;;6.88;;
62633;SDS011;48704;50.534;6.442;2022-07-21T02:16:33;10.50;;;6.03;;
62633;SDS011;48704;50.534;6.442;2022-07-21T02:18:59;8.93;;;6.57;;
62633;SDS011;48704;50.534;6.442;2022-07-21T02:21:25;8.07;;;6.03;;
62633;SDS011;48704;50.534;6.442;2022-07-21T02:23:51;9.52;;;6.93;;
62633;SDS011;48704;50.534;6.442;2022-07-21T02:26:17;11.80;;;7.05;;
62633;SDS011;48704;50.534;6.442;2022-07-21T02:28:43;11.73;;;7.45;;
62633;SDS011;48704;50.534;6.442;2022-07-21T02:31:08;11.52;;;6.78;;
62633;SDS011;48704;50.534;6.442;2022-07-21T02:33:34;9.00;;;6.13;;
62633;SDS011;48704;50.534;6.442;2022-07-21T02:36:00;9.68;;;6.50;;
62633;SDS011;48704;50.534;6.442;2022-07-21T02:38:26;10.27;;;6.28;;
62633;SDS011;48704;50.534;6.442;2022-07-21T02:40:53;9.45;;;6.75;;
62633;SDS011;48704;50.534;6.442;2022-07-21T02:43:18;10.18;;;6.78;;
62633;SDS011;48704;50.534;6.442;2022-07-21T02:45:44;10.70;;;6.93;;
62633;SDS011;48704;50.534;6.442;2022-07-21T02:48:10;12.57;;;6.97;;
62633;SDS011;48704;50.534;6.442;2022-07-21T02:50:38;8.68;;;6.35;;
62633;SDS011;48704;50.534;6.442;2022-07-21T02:53:07;11.57;;;7.15;;
62633;SDS011;48704;50.534;6.442;2022-07-21T02:55:35;8.35;;;6.65;;
62633;SDS011;48704;50.534;6.442;2022-07-21T03:00:37;10.95;;;7.18;;
62633;SDS011;48704;50.534;6.442;2022-07-21T03:03:04;9.05;;;6.57;;
62633;SDS011;48704;50.534;6.442;2022-07-21T03:05:30;9.50;;;7.15;;
62633;SDS011;48704;50.534;6.442;2022-07-21T03:07:56;11.07;;;7.68;;
62633;SDS011;48704;50.534;6.442;2022-07-21T03:10:22;9.82;;;6.72;;
62633;SDS011;48704;50.534;6.442;2022-07-21T03:12:48;13.10;;;7.88;;
62633;SDS011;48704;50.534;6.442;2022-07-21T03:15:13;11.10;;;7.88;;
62633;SDS011;48704;50.534;6.442;2022-07-21T03:17:39;11.45;;;7.72;;
62633;SDS011;48704;50.534;6.442;2022-07-21T03:20:05;11.45;;;8.00;;
62633;SDS011;48704;50.534;6.442;2022-07-21T03:22:31;12.40;;;7.60;;
62633;SDS011;48704;50.534;6.442;2022-07-21T03:24:56;11.13;;;8.07;;
62633;SDS011;48704;50.534;6.442;2022-07-21T03:27:22;10.40;;;7.72;;
62633;SDS011;48704;50.534;6.442;2022-07-21T03:29:47;11.90;;;8.02;;
62633;SDS011;48704;50.534;6.442;2022-07-21T03:32:13;10.57;;;7.97;;
62633;SDS011;48704;50.534;6.442;2022-07-21T03:34:39;11.60;;;7.90;;
62633;SDS011;48704;50.534;6.442;2022-07-21T03:37:04;14.23;;;8.32;;
62633;SDS011;48704;50.534;6.442;2022-07-21T03:39:30;10.90;;;7.72;;
62633;SDS011;48704;50.534;6.442;2022-07-21T03:41:55;10.35;;;7.72;;
62633;SDS011;48704;50.534;6.442;2022-07-21T03:44:21;10.45;;;7.60;;
62633;SDS011;48704;50.534;6.442;2022-07-21T03:46:46;14.68;;;7.97;;
62633;SDS011;48704;50.534;6.442;2022-07-21T03:49:12;11.93;;;8.23;;
62633;SDS011;48704;50.534;6.442;2022-07-21T03:51:37;11.70;;;8.07;;
62633;SDS011;48704;50.534;6.442;2022-07-21T03:54:03;10.80;;;8.13;;
62633;SDS011;48704;50.534;6.442;2022-07-21T03:56:29;13.68;;;8.40;;
62633;SDS011;48704;50.534;6.442;2022-07-21T03:58:54;11.55;;;7.82;;
62633;SDS011;48704;50.534;6.442;2022-07-21T04:01:20;14.60;;;8.25;;
62633;SDS011;48704;50.534;6.442;2022-07-21T04:03:46;12.48;;;8.45;;
62633;SDS011;48704;50.534;6.442;2022-07-21T04:06:11;15.77;;;9.82;;
62633;SDS011;48704;50.534;6.442;2022-07-21T04:08:37;13.55;;;8.85;;
62633;SDS011;48704;50.534;6.442;2022-07-21T04:11:03;14.57;;;9.52;;
62633;SDS011;48704;50.534;6.442;2022-07-21T04:13:29;14.57;;;9.00;;
62633;SDS011;48704;50.534;6.442;2022-07-21T04:15:55;15.63;;;9.65;;
62633;SDS011;48704;50.534;6.442;2022-07-21T04:18:20;15.05;;;9.75;;
62633;SDS011;48704;50.534;6.442;2022-07-21T04:20:46;14.68;;;10.32;;
62633;SDS011;48704;50.534;6.442;2022-07-21T04:23:11;17.60;;;11.55;;
62633;SDS011;48704;50.534;6.442;2022-07-21T04:25:37;15.77;;;10.23;;
62633;SDS011;48704;50.534;6.442;2022-07-21T04:28:04;15.48;;;9.88;;
62633;SDS011;48704;50.534;6.442;2022-07-21T04:30:30;15.57;;;10.45;;
62633;SDS011;48704;50.534;6.442;2022-07-21T04:32:56;12.07;;;8.30;;
62633;SDS011;48704;50.534;6.442;2022-07-21T04:35:22;12.30;;;9.18;;
62633;SDS011;48704;50.534;6.442;2022-07-21T04:37:48;13.07;;;8.50;;
62633;SDS011;48704;50.534;6.442;2022-07-21T04:40:14;14.73;;;8.65;;
62633;SDS011;48704;50.534;6.442;2022-07-21T04:42:40;11.20;;;7.68;;
62633;SDS011;48704;50.534;6.442;2022-07-21T04:45:07;9.35;;;6.53;;
62633;SDS011;48704;50.534;6.442;2022-07-21T04:47:41;11.57;;;7.03;;
62633;SDS011;48704;50.534;6.442;2022-07-21T04:50:12;12.38;;;8.32;;
62633;SDS011;48704;50.534;6.442;2022-07-21T04:52:38;11.02;;;7.13;;
62633;SDS011;48704;50.534;6.442;2022-07-21T04:55:03;11.20;;;7.82;;
62633;SDS011;48704;50.534;6.442;2022-07-21T04:57:29;10.75;;;7.28;;
62633;SDS011;48704;50.534;6.442;2022-07-21T04:59:55;12.80;;;7.47;;
62633;SDS011;48704;50.534;6.442;2022-07-21T05:02:21;11.65;;;7.25;;
62633;SDS011;48704;50.534;6.442;2022-07-21T05:04:46;12.18;;;7.80;;
62633;SDS011;48704;50.534;6.442;2022-07-21T05:07:12;11.27;;;7.30;;
62633;SDS011;48704;50.534;6.442;2022-07-21T05:09:37;14.15;;;7.78;;
62633;SDS011;48704;50.534;6.442;2022-07-21T05:12:03;9.02;;;6.45;;
62633;SDS011;48704;50.534;6.442;2022-07-21T05:14:29;9.20;;;5.97;;
62633;SDS011;48704;50.534;6.442;2022-07-21T05:16:54;10.30;;;6.95;;
62633;SDS011;48704;50.534;6.442;2022-07-21T05:19:20;8.68;;;6.15;;
62633;SDS011;48704;50.534;6.442;2022-07-21T05:21:46;10.48;;;6.80;;
62633;SDS011;48704;50.534;6.442;2022-07-21T05:24:12;8.77;;;6.25;;
62633;SDS011;48704;50.534;6.442;2022-07-21T05:26:37;8.38;;;6.18;;
62633;SDS011;48704;50.534;6.442;2022-07-21T05:29:03;9.05;;;6.82;;
62633;SDS011;48704;50.534;6.442;2022-07-21T05:31:29;9.82;;;6.82;;
62633;SDS011;48704;50.534;6.442;2022-07-21T05:33:54;9.40;;;6.72;;
62633;SDS011;48704;50.534;6.442;2022-07-21T05:36:20;9.98;;;6.55;;
62633;SDS011;48704;50.534;6.442;2022-07-21T05:38:46;11.98;;;8.15;;
62633;SDS011;48704;50.534;6.442;2022-07-21T05:41:12;10.65;;;8.00;;
62633;SDS011;48704;50.534;6.442;2022-07-21T05:43:38;12.23;;;8.00;;
62633;SDS011;48704;50.534;6.442;2022-07-21T05:46:04;12.93;;;8.98;;
62633;SDS011;48704;50.534;6.442;2022-07-21T05:48:30;13.50;;;8.88;;
62633;SDS011;48704;50.534;6.442;2022-07-21T05:50:55;13.40;;;8.82;;
62633;SDS011;48704;50.534;6.442;2022-07-21T05:53:21;13.45;;;8.88;;
62633;SDS011;48704;50.534;6.442;2022-07-21T05:55:47;14.57;;;9.10;;
62633;SDS011;48704;50.534;6.442;2022-07-21T05:58:13;14.77;;;9.75;;
62633;SDS011;48704;50.534;6.442;2022-07-21T06:00:39;13.02;;;9.13;;
62633;SDS011;48704;50.534;6.442;2022-07-21T06:03:05;11.27;;;7.28;;
62633;SDS011;48704;50.534;6.442;2022-07-21T06:05:30;9.77;;;7.55;;
62633;SDS011;48704;50.534;6.442;2022-07-21T06:07:56;10.35;;;6.72;;
62633;SDS011;48704;50.534;6.442;2022-07-21T06:10:21;10.15;;;6.22;;
62633;SDS011;48704;50.534;6.442;2022-07-21T06:12:47;9.48;;;6.00;;
62633;SDS011;48704;50.534;6.442;2022-07-21T06:15:13;11.25;;;6.75;;
62633;SDS011;48704;50.534;6.442;2022-07-21T06:17:43;13.88;;;8.52;;
62633;SDS011;48704;50.534;6.442;2022-07-21T06:20:10;15.05;;;9.75;;
62633;SDS011;48704;50.534;6.442;2022-07-21T06:22:36;15.02;;;9.75;;
62633;SDS011;48704;50.534;6.442;2022-07-21T06:25:03;11.25;;;8.02;;
62633;SDS011;48704;50.534;6.442;2022-07-21T06:27:29;8.82;;;6.68;;
62633;SDS011;48704;50.534;6.442;2022-07-21T06:29:57;6.63;;;4.85;;
62633;SDS011;48704;50.534;6.442;2022-07-21T06:32:24;7.18;;;5.15;;
62633;SDS011;48704;50.534;6.442;2022-07-21T06:34:50;6.75;;;4.40;;
62633;SDS011;48704;50.534;6.442;2022-07-21T06:37:16;7.00;;;4.78;;
62633;SDS011;48704;50.534;6.442;2022-07-21T06:39:41;6.40;;;3.92;;
62633;SDS011;48704;50.534;6.442;2022-07-21T06:42:07;6.28;;;3.97;;
62633;SDS011;48704;50.534;6.442;2022-07-21T06:44:33;6.93;;;4.03;;
62633;SDS011;48704;50.534;6.442;2022-07-21T06:46:59;8.65;;;3.63;;
62633;SDS011;48704;50.534;6.442;2022-07-21T06:49:30;6.78;;;3.80;;
62633;SDS011;48704;50.534;6.442;2022-07-21T06:51:56;7.95;;;3.55;;
62633;SDS011;48704;50.534;6.442;2022-07-21T06:54:22;5.90;;;4.00;;
62633;SDS011;48704;50.534;6.442;2022-07-21T06:56:47;6.93;;;3.65;;
62633;SDS011;48704;50.534;6.442;2022-07-21T06:59:13;7.05;;;3.95;;
62633;SDS011;48704;50.534;6.442;2022-07-21T07:01:38;7.22;;;3.88;;
62633;SDS011;48704;50.534;6.442;2022-07-21T07:04:04;8.55;;;4.80;;
62633;SDS011;48704;50.534;6.442;2022-07-21T07:06:30;5.85;;;4.50;;
62633;SDS011;48704;50.534;6.442;2022-07-21T07:08:55;8.63;;;5.35;;
62633;SDS011;48704;50.534;6.442;2022-07-21T07:11:21;9.18;;;4.72;;
62633;SDS011;48704;50.534;6.442;2022-07-21T07:13:46;9.65;;;5.78;;
62633;SDS011;48704;50.534;6.442;2022-07-21T07:16:12;8.00;;;5.35;;
62633;SDS011;48704;50.534;6.442;2022-07-21T07:18:38;11.45;;;5.63;;
62633;SDS011;48704;50.534;6.442;2022-07-21T07:21:04;12.88;;;6.50;;
62633;SDS011;48704;50.534;6.442;2022-07-21T07:23:30;11.65;;;6.70;;
62633;SDS011;48704;50.534;6.442;2022-07-21T07:25:56;11.10;;;6.38;;
62633;SDS011;48704;50.534;6.442;2022-07-21T07:28:21;10.18;;;6.15;;
62633;SDS011;48704;50.534;6.442;2022-07-21T07:30:47;12.63;;;6.90;;
62633;SDS011;48704;50.534;6.442;2022-07-21T07:33:13;12.10;;;6.88;;
62633;SDS011;48704;50.534;6.442;2022-07-21T07:35:39;11.35;;;6.85;;
62633;SDS011;48704;50.534;6.442;2022-07-21T07:38:05;10.13;;;6.53;;
62633;SDS011;48704;50.534;6.442;2022-07-21T07:40:30;9.63;;;6.75;;
62633;SDS011;48704;50.534;6.442;2022-07-21T07:42:56;14.23;;;7.90;;
62633;SDS011;48704;50.534;6.442;2022-07-21T07:45:22;8.60;;;6.80;;
62633;SDS011;48704;50.534;6.442;2022-07-21T07:47:48;9.38;;;6.95;;
62633;SDS011;48704;50.534;6.442;2022-07-21T07:50:14;11.70;;;7.22;;
62633;SDS011;48704;50.534;6.442;2022-07-21T07:52:41;8.32;;;6.43;;
62633;SDS011;48704;50.534;6.442;2022-07-21T07:55:08;12.73;;;7.28;;
62633;SDS011;48704;50.534;6.442;2022-07-21T07:57:36;10.40;;;7.13;;
62633;SDS011;48704;50.534;6.442;2022-07-21T08:00:06;10.23;;;7.20;;
62633;SDS011;48704;50.534;6.442;2022-07-21T08:02:34;10.00;;;7.07;;
62633;SDS011;48704;50.534;6.442;2022-07-21T08:05:00;13.38;;;8.32;;
62633;SDS011;48704;50.534;6.442;2022-07-21T08:07:26;16.00;;;9.07;;
62633;SDS011;48704;50.534;6.442;2022-07-21T08:09:52;11.38;;;7.80;;
62633;SDS011;48704;50.534;6.442;2022-07-21T08:12:17;12.65;;;7.82;;
62633;SDS011;48704;50.534;6.442;2022-07-21T08:14:44;13.13;;;8.27;;
62633;SDS011;48704;50.534;6.442;2022-07-21T08:17:09;13.15;;;7.95;;
62633;SDS011;48704;50.534;6.442;2022-07-21T08:19:35;11.75;;;7.68;;
62633;SDS011;48704;50.534;6.442;2022-07-21T08:22:01;13.05;;;7.75;;
62633;SDS011;48704;50.534;6.442;2022-07-21T08:24:26;12.98;;;7.05;;
62633;SDS011;48704;50.534;6.442;2022-07-21T08:26:52;11.10;;;7.43;;
62633;SDS011;48704;50.534;6.442;2022-07-21T08:29:18;10.27;;;6.38;;
62633;SDS011;48704;50.534;6.442;2022-07-21T08:31:44;10.20;;;7.38;;
62633;SDS011;48704;50.534;6.442;2022-07-21T08:34:10;12.77;;;7.75;;
62633;SDS011;48704;50.534;6.442;2022-07-21T08:36:36;8.95;;;6.68;;
62633;SDS011;48704;50.534;6.442;2022-07-21T08:39:01;10.88;;;7.07;;
62633;SDS011;48704;50.534;6.442;2022-07-21T08:41:27;11.07;;;6.50;;
62633;SDS011;48704;50.534;6.442;2022-07-21T08:43:53;6.88;;;5.10;;
62633;SDS011;48704;50.534;6.442;2022-07-21T08:46:22;10.07;;;7.15;;
62633;SDS011;48704;50.534;6.442;2022-07-21T08:48:49;9.52;;;6.40;;
62633;SDS011;48704;50.534;6.442;2022-07-21T08:51:15;9.23;;;6.40;;
62633;SDS011;48704;50.534;6.442;2022-07-21T08:53:46;11.10;;;5.43;;
62633;SDS011;48704;50.534;6.442;2022-07-21T08:56:13;9.80;;;5.72;;
62633;SDS011;48704;50.534;6.442;2022-07-21T08:58:38;10.00;;;5.72;;
62633;SDS011;48704;50.534;6.442;2022-07-21T09:01:04;12.65;;;6.35;;
62633;SDS011;48704;50.534;6.442;2022-07-21T09:03:30;9.65;;;5.68;;
62633;SDS011;48704;50.534;6.442;2022-07-21T09:06:07;9.27;;;5.82;;
62633;SDS011;48704;50.534;6.442;2022-07-21T09:11:08;8.98;;;5.57;;
62633;SDS011;48704;50.534;6.442;2022-07-21T09:13:34;10.80;;;6.35;;
62633;SDS011;48704;50.534;6.442;2022-07-21T09:16:00;15.60;;;6.90;;
62633;SDS011;48704;50.534;6.442;2022-07-21T09:18:25;9.35;;;5.68;;
62633;SDS011;48704;50.534;6.442;2022-07-21T09:20:52;10.32;;;6.13;;
62633;SDS011;48704;50.534;6.442;2022-07-21T09:23:20;7.03;;;5.32;;
62633;SDS011;48704;50.534;6.442;2022-07-21T09:25:48;8.07;;;5.75;;
62633;SDS011;48704;50.534;6.442;2022-07-21T09:30:53;9.15;;;5.95;;
62633;SDS011;48704;50.534;6.442;2022-07-21T09:33:38;9.40;;;5.30;;
62633;SDS011;48704;50.534;6.442;2022-07-21T09:36:16;7.15;;;5.50;;
62633;SDS011;48704;50.534;6.442;2022-07-21T09:38:51;9.38;;;5.60;;
62633;SDS011;48704;50.534;6.442;2022-07-21T09:41:21;9.63;;;5.43;;
62633;SDS011;48704;50.534;6.442;2022-07-21T09:43:49;8.18;;;5.35;;
62633;SDS011;48704;50.534;6.442;2022-07-21T09:46:26;8.48;;;5.20;;
62633;SDS011;48704;50.534;6.442;2022-07-21T09:48:56;9.07;;;4.90;;
62633;SDS011;48704;50.534;6.442;2022-07-21T09:51:29;7.65;;;5.10;;
62633;SDS011;48704;50.534;6.442;2022-07-21T09:54:00;9.82;;;5.28;;
62633;SDS011;48704;50.534;6.442;2022-07-21T09:56:28;8.90;;;5.53;;
62633;SDS011;48704;50.534;6.442;2022-07-21T09:58:57;9.65;;;5.65;;
62633;SDS011;48704;50.534;6.442;2022-07-21T10:01:24;7.90;;;5.50;;
62633;SDS011;48704;50.534;6.442;2022-07-21T10:03:51;10.10;;;6.32;;
62633;SDS011;48704;50.534;6.442;2022-07-21T10:06:19;11.80;;;5.97;;
62633;SDS011;48704;50.534;6.442;2022-07-21T10:08:48;8.35;;;5.85;;
62633;SDS011;48704;50.534;6.442;2022-07-21T10:11:14;8.80;;;5.90;;
62633;SDS011;48704;50.534;6.442;2022-07-21T10:13:40;12.50;;;6.53;;
62633;SDS011;48704;50.534;6.442;2022-07-21T10:16:08;11.48;;;7.18;;
62633;SDS011;48704;50.534;6.442;2022-07-21T10:18:42;9.93;;;7.00;;
62633;SDS011;48704;50.534;6.442;2022-07-21T10:24:25;13.15;;;7.13;;
62633;SDS011;48704;50.534;6.442;2022-07-21T10:27:09;11.65;;;7.07;;
62633;SDS011;48704;50.534;6.442;2022-07-21T10:29:57;13.10;;;7.75;;
62633;SDS011;48704;50.534;6.442;2022-07-21T10:32:29;13.30;;;7.55;;
62633;SDS011;48704;50.534;6.442;2022-07-21T10:34:55;11.85;;;7.85;;
62633;SDS011;48704;50.534;6.442;2022-07-21T10:40:05;9.90;;;6.95;;
62633;SDS011;48704;50.534;6.442;2022-07-21T10:47:59;10.82;;;6.57;;
62633;SDS011;48704;50.534;6.442;2022-07-21T10:50:30;14.05;;;7.05;;
62633;SDS011;48704;50.534;6.442;2022-07-21T10:52:58;9.98;;;7.10;;
62633;SDS011;48704;50.534;6.442;2022-07-21T10:55:27;13.02;;;7.03;;
62633;SDS011;48704;50.534;6.442;2022-07-21T10:58:11;9.52;;;7.10;;
62633;SDS011;48704;50.534;6.442;2022-07-21T11:00:43;8.73;;;6.85;;
62633;SDS011;48704;50.534;6.442;2022-07-21T11:08:31;10.23;;;6.82;;
62633;SDS011;48704;50.534;6.442;2022-07-21T11:12:02;9.35;;;6.47;;
62633;SDS011;48704;50.534;6.442;2022-07-21T11:14:21;9.88;;;6.90;;
62633;SDS011;48704;50.534;6.442;2022-07-21T11:17:01;8.85;;;6.38;;
62633;SDS011;48704;50.534;6.442;2022-07-21T11:22:00;12.93;;;7.50;;
62633;SDS011;48704;50.534;6.442;2022-07-21T11:24:28;11.70;;;7.60;;
62633;SDS011;48704;50.534;6.442;2022-07-21T11:27:04;9.75;;;6.93;;
62633;SDS011;48704;50.534;6.442;2022-07-21T11:29:32;10.98;;;7.35;;
62633;SDS011;48704;50.534;6.442;2022-07-21T11:31:59;13.13;;;7.47;;
62633;SDS011;48704;50.534;6.442;2022-07-21T11:34:48;14.55;;;8.38;;
62633;SDS011;48704;50.534;6.442;2022-07-21T11:37:18;11.63;;;8.88;;
62633;SDS011;48704;50.534;6.442;2022-07-21T11:39:52;15.00;;;8.38;;
62633;SDS011;48704;50.534;6.442;2022-07-21T11:42:17;14.05;;;8.68;;
62633;SDS011;48704;50.534;6.442;2022-07-21T11:44:43;14.65;;;7.90;;
62633;SDS011;48704;50.534;6.442;2022-07-21T11:47:10;11.50;;;8.77;;
62633;SDS011;48704;50.534;6.442;2022-07-21T11:49:38;10.52;;;7.60;;
62633;SDS011;48704;50.534;6.442;2022-07-21T11:52:08;13.45;;;8.02;;
62633;SDS011;48704;50.534;6.442;2022-07-21T11:54:37;10.98;;;7.72;;
62633;SDS011;48704;50.534;6.442;2022-07-21T11:57:08;11.88;;;8.35;;
62633;SDS011;48704;50.534;6.442;2022-07-21T11:59:34;13.18;;;7.50;;
62633;SDS011;48704;50.534;6.442;2022-07-21T12:07:03;13.73;;;7.72;;
62633;SDS011;48704;50.534;6.442;2022-07-21T12:09:34;12.23;;;8.73;;
62633;SDS011;48704;50.534;6.442;2022-07-21T12:12:01;11.27;;;8.00;;
62633;SDS011;48704;50.534;6.442;2022-07-21T12:14:40;15.38;;;8.68;;
62633;SDS011;48704;50.534;6.442;2022-07-21T12:17:11;11.73;;;8.02;;
62633;SDS011;48704;50.534;6.442;2022-07-21T12:19:37;11.15;;;8.07;;
62633;SDS011;48704;50.534;6.442;2022-07-21T12:22:03;10.85;;;8.43;;
62633;SDS011;48704;50.534;6.442;2022-07-21T12:24:48;13.95;;;8.77;;
62633;SDS011;48704;50.534;6.442;2022-07-21T12:27:13;12.25;;;8.20;;
62633;SDS011;48704;50.534;6.442;2022-07-21T12:29:42;13.25;;;8.20;;
62633;SDS011;48704;50.534;6.442;2022-07-21T12:32:07;14.18;;;7.97;;
62633;SDS011;48704;50.534;6.442;2022-07-21T12:34:33;11.75;;;7.63;;
62633;SDS011;48704;50.534;6.442;2022-07-21T12:37:16;15.15;;;8.48;;
62633;SDS011;48704;50.534;6.442;2022-07-21T12:39:42;13.48;;;7.93;;
62633;SDS011;48704;50.534;6.442;2022-07-21T12:42:31;13.88;;;8.35;;
62633;SDS011;48704;50.534;6.442;2022-07-21T12:45:12;13.27;;;7.90;;
62633;SDS011;48704;50.534;6.442;2022-07-21T12:47:42;12.10;;;7.63;;
62633;SDS011;48704;50.534;6.442;2022-07-21T12:50:09;12.23;;;8.15;;
62633;SDS011;48704;50.534;6.442;2022-07-21T12:52:40;10.88;;;7.55;;
62633;SDS011;48704;50.534;6.442;2022-07-21T12:55:06;13.48;;;7.88;;
62633;SDS011;48704;50.534;6.442;2022-07-21T12:57:33;15.43;;;8.43;;
62633;SDS011;48704;50.534;6.442;2022-07-21T12:59:59;12.18;;;8.23;;
62633;SDS011;48704;50.534;6.442;2022-07-21T13:02:25;12.25;;;8.75;;
62633;SDS011;48704;50.534;6.442;2022-07-21T13:04:52;12.30;;;8.18;;
62633;SDS011;48704;50.534;6.442;2022-07-21T13:07:18;11.52;;;8.00;;
62633;SDS011;48704;50.534;6.442;2022-07-21T13:09:44;14.18;;;8.18;;
62633;SDS011;48704;50.534;6.442;2022-07-21T13:12:13;11.82;;;7.80;;
62633;SDS011;48704;50.534;6.442;2022-07-21T13:14:39;15.38;;;9.43;;
62633;SDS011;48704;50.534;6.442;2022-07-21T13:17:06;15.00;;;8.57;;
62633;SDS011;48704;50.534;6.442;2022-07-21T13:19:33;13.48;;;9.18;;
62633;SDS011;48704;50.534;6.442;2022-07-21T13:22:01;13.75;;;8.98;;
62633;SDS011;48704;50.534;6.442;2022-07-21T13:24:28;14.25;;;9.32;;
62633;SDS011;48704;50.534;6.442;2022-07-21T13:26:53;10.57;;;8.48;;
62633;SDS011;48704;50.534;6.442;2022-07-21T13:29:19;14.25;;;9.75;;
62633;SDS011;48704;50.534;6.442;2022-07-21T13:31:44;12.30;;;9.23;;
62633;SDS011;48704;50.534;6.442;2022-07-21T13:34:10;17.38;;;9.38;;
62633;SDS011;48704;50.534;6.442;2022-07-21T13:36:37;15.38;;;9.98;;
62633;SDS011;48704;50.534;6.442;2022-07-21T13:39:04;15.48;;;10.52;;
62633;SDS011;48704;50.534;6.442;2022-07-21T13:41:31;16.58;;;11.20;;
62633;SDS011;48704;50.534;6.442;2022-07-21T13:43:57;15.88;;;10.10;;
62633;SDS011;48704;50.534;6.442;2022-07-21T13:46:23;16.27;;;10.38;;
62633;SDS011;48704;50.534;6.442;2022-07-21T13:48:50;19.83;;;10.52;;
62633;SDS011;48704;50.534;6.442;2022-07-21T13:51:16;14.57;;;10.00;;
62633;SDS011;48704;50.534;6.442;2022-07-21T13:53:43;17.85;;;10.75;;
62633;SDS011;48704;50.534;6.442;2022-07-21T13:56:10;14.50;;;10.52;;
62633;SDS011;48704;50.534;6.442;2022-07-21T13:58:36;13.80;;;10.77;;
62633;SDS011;48704;50.534;6.442;2022-07-21T14:01:02;18.33;;;10.07;;
62633;SDS011;48704;50.534;6.442;2022-07-21T14:03:28;12.82;;;9.40;;
62633;SDS011;48704;50.534;6.442;2022-07-21T14:05:53;13.52;;;8.52;;
62633;SDS011;48704;50.534;6.442;2022-07-21T14:08:19;12.88;;;8.40;;
62633;SDS011;48704;50.534;6.442;2022-07-21T14:10:45;11.85;;;8.13;;
62633;SDS011;48704;50.534;6.442;2022-07-21T14:13:10;11.48;;;8.02;;
62633;SDS011;48704;50.534;6.442;2022-07-21T14:15:36;9.55;;;7.75;;
62633;SDS011;48704;50.534;6.442;2022-07-21T14:18:02;12.93;;;8.20;;
62633;SDS011;48704;50.534;6.442;2022-07-21T14:20:28;10.25;;;7.22;;
62633;SDS011;48704;50.534;6.442;2022-07-21T14:22:54;11.45;;;7.18;;
62633;SDS011;48704;50.534;6.442;2022-07-21T14:25:19;11.25;;;8.20;;
62633;SDS011;48704;50.534;6.442;2022-07-21T14:27:50;16.80;;;10.00;;
62633;SDS011;48704;50.534;6.442;2022-07-21T14:30:17;15.23;;;9.90;;
62633;SDS011;48704;50.534;6.442;2022-07-21T14:32:44;15.73;;;10.05;;
62633;SDS011;48704;50.534;6.442;2022-07-21T14:35:11;16.00;;;9.80;;
62633;SDS011;48704;50.534;6.442;2022-07-21T14:37:40;15.43;;;9.32;;
62633;SDS011;48704;50.534;6.442;2022-07-21T14:40:06;16.73;;;9.48;;
62633;SDS011;48704;50.534;6.442;2022-07-21T14:42:33;14.30;;;9.25;;
62633;SDS011;48704;50.534;6.442;2022-07-21T14:45:00;16.73;;;9.50;;
62633;SDS011;48704;50.534;6.442;2022-07-21T14:47:26;13.18;;;9.10;;
62633;SDS011;48704;50.534;6.442;2022-07-21T14:49:51;14.82;;;9.23;;
62633;SDS011;48704;50.534;6.442;2022-07-21T14:52:17;13.20;;;8.20;;
62633;SDS011;48704;50.534;6.442;2022-07-21T14:54:43;13.80;;;8.05;;
62633;SDS011;48704;50.534;6.442;2022-07-21T14:57:09;11.35;;;7.50;;
62633;SDS011;48704;50.534;6.442;2022-07-21T14:59:35;13.07;;;7.10;;
62633;SDS011;48704;50.534;6.442;2022-07-21T15:02:00;11.60;;;7.13;;
62633;SDS011;48704;50.534;6.442;2022-07-21T15:04:26;13.32;;;8.27;;
62633;SDS011;48704;50.534;6.442;2022-07-21T15:06:52;15.48;;;9.38;;
62633;SDS011;48704;50.534;6.442;2022-07-21T15:09:18;13.05;;;7.72;;
62633;SDS011;48704;50.534;6.442;2022-07-21T15:11:43;12.10;;;6.97;;